Terminal Aerodrome Forecast
Issued by NWS Caribou, ME

Home | Current Version | Previous Version | Text Only | Print | Product List | Glossary On
Versions: 1 2 3 4 5 6 7 8 9 10 11 12 13 14 15 16 17 18 19 20 21
000
FTUS41 KCAR 172340
TAFCAR
TAF
KCAR 172340Z 1800/1824 32014G24KT P6SM VCSH BKN023
     FM180230 32013KT P6SM SCT035
     FM180900 31009KT P6SM SCT200 BKN250
     FM181700 VRB03KT P6SM BKN090 OVC180
     FM182200 15004KT P6SM BKN060 OVC120=

USA.gov is the U.S. government's official web portal to all federal, state and local government web resources and services.